West End, New York
Current Conditions -  °F | °C
As of 4:55 PM on Tuesday 25 Nov 2014 (Local Time) from KNY0 Reporting Station
Clear Clear  
Wind Chill:   Ceiling: Unl
Heat Index:   Visibility: 10mi
Dew Point: -5°   Wind: 9mph
Humidity: 49%   Direction: 240°WSW
Pressure: 29.96"   Gusts: NA
Location:  42.4787°N, 75.0181°W
Report Text: KNY0 252155Z AUTO 24008KT 10SM CLR 06/M05 A2996 RMK AO2 T00551046
Loading
Personal Weather Stations






























Interactive Weather Map New forecast layout! Learn more

10-Day Weather Forecast

Advertisements
Track Severe Weather on mobile